sensor_id;sensor_type;location;lat;lon;timestamp;temperature;humidity
12853;DHT22;6495;51.808;7.478;2023-02-15T00:00:34;4.30;99.90
12853;DHT22;6495;51.808;7.478;2023-02-15T00:03:03;4.30;99.90
12853;DHT22;6495;51.808;7.478;2023-02-15T00:05:31;4.30;99.90
12853;DHT22;6495;51.808;7.478;2023-02-15T00:07:59;4.20;99.90
12853;DHT22;6495;51.808;7.478;2023-02-15T00:10:27;4.20;99.90
12853;DHT22;6495;51.808;7.478;2023-02-15T00:12:56;4.20;99.90
12853;DHT22;6495;51.808;7.478;2023-02-15T00:15:24;4.10;99.90
12853;DHT22;6495;51.808;7.478;2023-02-15T00:17:53;4.10;99.90
12853;DHT22;6495;51.808;7.478;2023-02-15T00:20:21;4.10;99.90
12853;DHT22;6495;51.808;7.478;2023-02-15T00:22:49;4.00;99.90
12853;DHT22;6495;51.808;7.478;2023-02-15T00:25:17;4.00;99.90
12853;DHT22;6495;51.808;7.478;2023-02-15T00:27:45;4.00;99.90
12853;DHT22;6495;51.808;7.478;2023-02-15T00:30:15;3.90;99.90
12853;DHT22;6495;51.808;7.478;2023-02-15T00:32:43;3.90;99.90
12853;DHT22;6495;51.808;7.478;2023-02-15T00:35:11;3.90;99.90
12853;DHT22;6495;51.808;7.478;2023-02-15T00:37:39;3.80;99.90
12853;DHT22;6495;51.808;7.478;2023-02-15T00:40:08;3.80;99.90
12853;DHT22;6495;51.808;7.478;2023-02-15T00:42:37;3.80;99.90
12853;DHT22;6495;51.808;7.478;2023-02-15T00:45:05;3.80;99.90
12853;DHT22;6495;51.808;7.478;2023-02-15T00:47:35;3.70;99.90
12853;DHT22;6495;51.808;7.478;2023-02-15T00:50:05;3.70;99.90
12853;DHT22;6495;51.808;7.478;2023-02-15T00:52:34;3.60;99.90
12853;DHT22;6495;51.808;7.478;2023-02-15T00:55:02;3.60;99.90
12853;DHT22;6495;51.808;7.478;2023-02-15T00:57:31;3.50;99.90
12853;DHT22;6495;51.808;7.478;2023-02-15T00:59:59;3.50;99.90
12853;DHT22;6495;51.808;7.478;2023-02-15T01:02:27;3.50;99.90
12853;DHT22;6495;51.808;7.478;2023-02-15T01:04:57;3.40;99.90
12853;DHT22;6495;51.808;7.478;2023-02-15T01:07:25;3.40;99.90
12853;DHT22;6495;51.808;7.478;2023-02-15T01:09:53;3.40;99.90
12853;DHT22;6495;51.808;7.478;2023-02-15T01:12:21;3.40;99.90
12853;DHT22;6495;51.808;7.478;2023-02-15T01:14:49;3.40;99.90
12853;DHT22;6495;51.808;7.478;2023-02-15T01:17:18;3.40;99.90
12853;DHT22;6495;51.808;7.478;2023-02-15T01:19:47;3.30;99.90
12853;DHT22;6495;51.808;7.478;2023-02-15T01:22:16;3.30;99.90
12853;DHT22;6495;51.808;7.478;2023-02-15T01:24:45;3.30;99.90
12853;DHT22;6495;51.808;7.478;2023-02-15T01:27:13;3.30;99.90
12853;DHT22;6495;51.808;7.478;2023-02-15T01:29:42;3.30;99.90
12853;DHT22;6495;51.808;7.478;2023-02-15T01:32:11;3.30;99.90
12853;DHT22;6495;51.808;7.478;2023-02-15T01:34:42;3.20;99.90
12853;DHT22;6495;51.808;7.478;2023-02-15T01:37:10;3.20;99.90
12853;DHT22;6495;51.808;7.478;2023-02-15T01:39:39;3.20;99.90
12853;DHT22;6495;51.808;7.478;2023-02-15T01:42:09;3.20;99.90
12853;DHT22;6495;51.808;7.478;2023-02-15T01:44:56;3.10;99.90
12853;DHT22;6495;51.808;7.478;2023-02-15T01:47:32;3.10;99.90
12853;DHT22;6495;51.808;7.478;2023-02-15T01:50:08;3.10;99.90
12853;DHT22;6495;51.808;7.478;2023-02-15T01:52:39;3.10;99.90
12853;DHT22;6495;51.808;7.478;2023-02-15T01:55:13;3.00;99.90
12853;DHT22;6495;51.808;7.478;2023-02-15T01:57:43;3.00;99.90
12853;DHT22;6495;51.808;7.478;2023-02-15T02:00:14;3.00;99.90
12853;DHT22;6495;51.808;7.478;2023-02-15T02:02:48;3.00;99.90
12853;DHT22;6495;51.808;7.478;2023-02-15T02:05:20;3.00;99.90
12853;DHT22;6495;51.808;7.478;2023-02-15T02:07:51;3.00;99.90
12853;DHT22;6495;51.808;7.478;2023-02-15T02:10:24;3.00;99.90
12853;DHT22;6495;51.808;7.478;2023-02-15T02:12:55;2.90;99.90
12853;DHT22;6495;51.808;7.478;2023-02-15T02:15:33;3.00;99.90
12853;DHT22;6495;51.808;7.478;2023-02-15T02:18:21;2.90;99.90
12853;DHT22;6495;51.808;7.478;2023-02-15T02:21:18;2.90;99.90
12853;DHT22;6495;51.808;7.478;2023-02-15T02:24:41;2.90;99.90
12853;DHT22;6495;51.808;7.478;2023-02-15T02:27:37;2.90;99.90
12853;DHT22;6495;51.808;7.478;2023-02-15T02:30:35;2.80;99.90
12853;DHT22;6495;51.808;7.478;2023-02-15T02:33:28;2.80;99.90
12853;DHT22;6495;51.808;7.478;2023-02-15T02:36:13;2.80;99.90
12853;DHT22;6495;51.808;7.478;2023-02-15T02:39:03;2.80;99.90
12853;DHT22;6495;51.808;7.478;2023-02-15T02:41:47;2.70;99.90
12853;DHT22;6495;51.808;7.478;2023-02-15T02:44:24;2.70;99.90
12853;DHT22;6495;51.808;7.478;2023-02-15T02:46:59;2.70;99.90
12853;DHT22;6495;51.808;7.478;2023-02-15T02:49:36;2.60;99.90
12853;DHT22;6495;51.808;7.478;2023-02-15T02:52:07;2.70;99.90
12853;DHT22;6495;51.808;7.478;2023-02-15T02:55:08;2.60;99.90
12853;DHT22;6495;51.808;7.478;2023-02-15T02:57:44;2.60;99.90
12853;DHT22;6495;51.808;7.478;2023-02-15T03:00:21;2.60;99.90
12853;DHT22;6495;51.808;7.478;2023-02-15T03:02:54;2.60;99.90
12853;DHT22;6495;51.808;7.478;2023-02-15T03:05:34;2.60;99.90
12853;DHT22;6495;51.808;7.478;2023-02-15T03:08:08;2.60;99.90
12853;DHT22;6495;51.808;7.478;2023-02-15T03:10:39;2.50;99.90
12853;DHT22;6495;51.808;7.478;2023-02-15T03:13:08;2.50;99.90
12853;DHT22;6495;51.808;7.478;2023-02-15T03:15:39;2.50;99.90
12853;DHT22;6495;51.808;7.478;2023-02-15T03:18:30;2.40;99.90
12853;DHT22;6495;51.808;7.478;2023-02-15T03:21:05;2.40;99.90
12853;DHT22;6495;51.808;7.478;2023-02-15T03:23:37;2.40;99.90
12853;DHT22;6495;51.808;7.478;2023-02-15T03:26:07;2.40;99.90
12853;DHT22;6495;51.808;7.478;2023-02-15T03:28:41;2.30;99.90
12853;DHT22;6495;51.808;7.478;2023-02-15T03:31:13;2.30;99.90
12853;DHT22;6495;51.808;7.478;2023-02-15T03:33:50;2.30;99.90
12853;DHT22;6495;51.808;7.478;2023-02-15T03:36:25;2.30;99.90
12853;DHT22;6495;51.808;7.478;2023-02-15T03:39:04;2.30;99.90
12853;DHT22;6495;51.808;7.478;2023-02-15T03:41:42;2.20;99.90
12853;DHT22;6495;51.808;7.478;2023-02-15T03:44:19;2.20;99.90
12853;DHT22;6495;51.808;7.478;2023-02-15T03:47:00;2.20;99.90
12853;DHT22;6495;51.808;7.478;2023-02-15T03:49:38;2.20;99.90
12853;DHT22;6495;51.808;7.478;2023-02-15T03:52:11;2.20;99.90
12853;DHT22;6495;51.808;7.478;2023-02-15T03:54:41;2.10;99.90
12853;DHT22;6495;51.808;7.478;2023-02-15T03:57:18;2.10;99.90
12853;DHT22;6495;51.808;7.478;2023-02-15T04:00:12;2.10;99.90
12853;DHT22;6495;51.808;7.478;2023-02-15T04:03:11;2.00;99.90
12853;DHT22;6495;51.808;7.478;2023-02-15T04:05:49;2.00;99.90
12853;DHT22;6495;51.808;7.478;2023-02-15T04:08:18;2.00;99.90
12853;DHT22;6495;51.808;7.478;2023-02-15T04:10:46;2.00;99.90
12853;DHT22;6495;51.808;7.478;2023-02-15T04:13:20;2.00;99.90
12853;DHT22;6495;51.808;7.478;2023-02-15T04:15:49;1.90;99.90
12853;DHT22;6495;51.808;7.478;2023-02-15T04:18:37;1.90;99.90
12853;DHT22;6495;51.808;7.478;2023-02-15T04:21:25;1.90;99.90
12853;DHT22;6495;51.808;7.478;2023-02-15T04:24:14;1.90;99.90
12853;DHT22;6495;51.808;7.478;2023-02-15T04:27:01;1.90;99.90
12853;DHT22;6495;51.808;7.478;2023-02-15T04:29:31;1.80;99.90
12853;DHT22;6495;51.808;7.478;2023-02-15T04:32:00;1.80;99.90
12853;DHT22;6495;51.808;7.478;2023-02-15T04:34:29;1.80;99.90
12853;DHT22;6495;51.808;7.478;2023-02-15T04:36:57;1.80;99.90
12853;DHT22;6495;51.808;7.478;2023-02-15T04:39:26;1.80;99.90
12853;DHT22;6495;51.808;7.478;2023-02-15T04:41:54;1.80;99.90
12853;DHT22;6495;51.808;7.478;2023-02-15T04:44:22;1.80;99.90
12853;DHT22;6495;51.808;7.478;2023-02-15T04:46:50;1.80;99.90
12853;DHT22;6495;51.808;7.478;2023-02-15T04:49:18;1.70;99.90
12853;DHT22;6495;51.808;7.478;2023-02-15T04:51:47;1.70;99.90
12853;DHT22;6495;51.808;7.478;2023-02-15T04:54:15;1.70;99.90
12853;DHT22;6495;51.808;7.478;2023-02-15T04:56:44;1.70;99.90
12853;DHT22;6495;51.808;7.478;2023-02-15T04:59:13;1.70;99.90
12853;DHT22;6495;51.808;7.478;2023-02-15T05:01:41;1.70;99.90
12853;DHT22;6495;51.808;7.478;2023-02-15T05:04:09;1.70;99.90
12853;DHT22;6495;51.808;7.478;2023-02-15T05:06:37;1.70;99.90
12853;DHT22;6495;51.808;7.478;2023-02-15T05:09:05;1.70;99.90
12853;DHT22;6495;51.808;7.478;2023-02-15T05:11:33;1.60;99.90
12853;DHT22;6495;51.808;7.478;2023-02-15T05:14:03;1.60;99.90
12853;DHT22;6495;51.808;7.478;2023-02-15T05:16:31;1.60;99.90
12853;DHT22;6495;51.808;7.478;2023-02-15T05:18:59;1.60;99.90
12853;DHT22;6495;51.808;7.478;2023-02-15T05:21:27;1.60;99.90
12853;DHT22;6495;51.808;7.478;2023-02-15T05:23:55;1.50;99.90
12853;DHT22;6495;51.808;7.478;2023-02-15T05:26:24;1.50;99.90
12853;DHT22;6495;51.808;7.478;2023-02-15T05:29:26;1.50;99.90
12853;DHT22;6495;51.808;7.478;2023-02-15T05:31:55;1.50;99.90
12853;DHT22;6495;51.808;7.478;2023-02-15T05:34:23;1.50;99.90
12853;DHT22;6495;51.808;7.478;2023-02-15T05:36:52;1.50;99.90
12853;DHT22;6495;51.808;7.478;2023-02-15T05:39:22;1.50;99.90
12853;DHT22;6495;51.808;7.478;2023-02-15T05:41:50;1.50;99.90
12853;DHT22;6495;51.808;7.478;2023-02-15T05:44:19;1.40;99.90
12853;DHT22;6495;51.808;7.478;2023-02-15T05:46:48;1.40;99.90
12853;DHT22;6495;51.808;7.478;2023-02-15T05:49:16;1.40;99.90
12853;DHT22;6495;51.808;7.478;2023-02-15T05:51:44;1.40;99.90
12853;DHT22;6495;51.808;7.478;2023-02-15T05:54:12;1.40;99.90
12853;DHT22;6495;51.808;7.478;2023-02-15T05:56:40;1.40;99.90
12853;DHT22;6495;51.808;7.478;2023-02-15T05:59:09;1.30;99.90
12853;DHT22;6495;51.808;7.478;2023-02-15T06:01:37;1.30;99.90
12853;DHT22;6495;51.808;7.478;2023-02-15T06:04:06;1.30;99.90
12853;DHT22;6495;51.808;7.478;2023-02-15T06:06:34;1.30;99.90
12853;DHT22;6495;51.808;7.478;2023-02-15T06:09:03;1.30;99.90
12853;DHT22;6495;51.808;7.478;2023-02-15T06:11:31;1.30;99.90
12853;DHT22;6495;51.808;7.478;2023-02-15T06:13:59;1.20;99.90
12853;DHT22;6495;51.808;7.478;2023-02-15T06:16:27;1.20;99.90
12853;DHT22;6495;51.808;7.478;2023-02-15T06:18:55;1.20;99.90
12853;DHT22;6495;51.808;7.478;2023-02-15T06:21:27;1.20;99.90
12853;DHT22;6495;51.808;7.478;2023-02-15T06:23:55;1.20;99.90
12853;DHT22;6495;51.808;7.478;2023-02-15T06:26:23;1.20;99.90
12853;DHT22;6495;51.808;7.478;2023-02-15T06:28:52;1.20;99.90
12853;DHT22;6495;51.808;7.478;2023-02-15T06:31:20;1.20;99.90
12853;DHT22;6495;51.808;7.478;2023-02-15T06:33:48;1.10;99.90
12853;DHT22;6495;51.808;7.478;2023-02-15T06:36:16;1.10;99.90
12853;DHT22;6495;51.808;7.478;2023-02-15T06:38:45;1.10;99.90
12853;DHT22;6495;51.808;7.478;2023-02-15T06:41:14;1.10;99.90
12853;DHT22;6495;51.808;7.478;2023-02-15T06:43:42;1.10;99.90
12853;DHT22;6495;51.808;7.478;2023-02-15T06:46:10;1.10;99.90
12853;DHT22;6495;51.808;7.478;2023-02-15T06:48:38;1.10;99.90
12853;DHT22;6495;51.808;7.478;2023-02-15T06:51:06;1.10;99.90
12853;DHT22;6495;51.808;7.478;2023-02-15T06:53:34;1.10;99.90
12853;DHT22;6495;51.808;7.478;2023-02-15T06:56:05;1.10;99.90
12853;DHT22;6495;51.808;7.478;2023-02-15T06:58:35;1.10;99.90
12853;DHT22;6495;51.808;7.478;2023-02-15T07:01:04;1.10;99.90
12853;DHT22;6495;51.808;7.478;2023-02-15T07:03:33;1.10;99.90
12853;DHT22;6495;51.808;7.478;2023-02-15T07:06:03;1.10;99.90
12853;DHT22;6495;51.808;7.478;2023-02-15T07:08:35;1.10;99.90
12853;DHT22;6495;51.808;7.478;2023-02-15T07:11:05;1.10;99.90
12853;DHT22;6495;51.808;7.478;2023-02-15T07:13:51;1.10;99.90
12853;DHT22;6495;51.808;7.478;2023-02-15T07:16:20;1.10;99.90
12853;DHT22;6495;51.808;7.478;2023-02-15T07:18:48;1.10;99.90
12853;DHT22;6495;51.808;7.478;2023-02-15T07:21:16;1.10;99.90
12853;DHT22;6495;51.808;7.478;2023-02-15T07:23:44;1.10;99.90
12853;DHT22;6495;51.808;7.478;2023-02-15T07:26:14;1.10;99.90
12853;DHT22;6495;51.808;7.478;2023-02-15T07:28:42;1.10;99.90
12853;DHT22;6495;51.808;7.478;2023-02-15T07:31:10;1.10;99.90
12853;DHT22;6495;51.808;7.478;2023-02-15T07:33:39;1.10;99.90
12853;DHT22;6495;51.808;7.478;2023-02-15T07:36:07;1.10;99.90
12853;DHT22;6495;51.808;7.478;2023-02-15T07:38:40;1.10;99.90
12853;DHT22;6495;51.808;7.478;2023-02-15T07:41:11;1.10;99.90
12853;DHT22;6495;51.808;7.478;2023-02-15T07:43:44;1.20;99.90
12853;DHT22;6495;51.808;7.478;2023-02-15T07:46:14;1.20;99.90
12853;DHT22;6495;51.808;7.478;2023-02-15T07:48:44;1.20;99.90
12853;DHT22;6495;51.808;7.478;2023-02-15T07:51:13;1.30;99.90
12853;DHT22;6495;51.808;7.478;2023-02-15T07:53:42;1.30;99.90
12853;DHT22;6495;51.808;7.478;2023-02-15T07:56:12;1.30;99.90
12853;DHT22;6495;51.808;7.478;2023-02-15T07:58:42;1.40;99.90
12853;DHT22;6495;51.808;7.478;2023-02-15T08:01:22;1.40;99.90
12853;DHT22;6495;51.808;7.478;2023-02-15T08:03:52;1.50;99.90
12853;DHT22;6495;51.808;7.478;2023-02-15T08:06:22;1.50;99.90
12853;DHT22;6495;51.808;7.478;2023-02-15T08:08:52;1.60;99.90
12853;DHT22;6495;51.808;7.478;2023-02-15T08:11:21;1.70;99.90
12853;DHT22;6495;51.808;7.478;2023-02-15T08:13:58;1.70;99.90
12853;DHT22;6495;51.808;7.478;2023-02-15T08:16:31;1.80;99.90
12853;DHT22;6495;51.808;7.478;2023-02-15T08:19:02;1.80;99.90
12853;DHT22;6495;51.808;7.478;2023-02-15T08:21:33;2.00;99.90
12853;DHT22;6495;51.808;7.478;2023-02-15T08:24:04;2.10;99.90
12853;DHT22;6495;51.808;7.478;2023-02-15T08:26:34;2.20;99.90
12853;DHT22;6495;51.808;7.478;2023-02-15T08:29:04;2.30;99.90
12853;DHT22;6495;51.808;7.478;2023-02-15T08:31:34;2.50;99.90
12853;DHT22;6495;51.808;7.478;2023-02-15T08:34:04;2.60;99.90
12853;DHT22;6495;51.808;7.478;2023-02-15T08:36:33;2.70;99.90
12853;DHT22;6495;51.808;7.478;2023-02-15T08:39:03;2.80;99.90
12853;DHT22;6495;51.808;7.478;2023-02-15T08:41:34;2.90;99.90
12853;DHT22;6495;51.808;7.478;2023-02-15T08:44:07;3.10;99.90
12853;DHT22;6495;51.808;7.478;2023-02-15T08:46:37;3.20;99.90
12853;DHT22;6495;51.808;7.478;2023-02-15T08:49:08;3.30;99.90
12853;DHT22;6495;51.808;7.478;2023-02-15T08:51:38;3.50;99.90
12853;DHT22;6495;51.808;7.478;2023-02-15T08:54:08;3.60;99.90
12853;DHT22;6495;51.808;7.478;2023-02-15T08:56:39;3.80;99.90
12853;DHT22;6495;51.808;7.478;2023-02-15T08:59:14;3.90;99.90
12853;DHT22;6495;51.808;7.478;2023-02-15T09:01:46;4.10;99.90
12853;DHT22;6495;51.808;7.478;2023-02-15T09:04:16;4.20;99.90
12853;DHT22;6495;51.808;7.478;2023-02-15T09:06:46;4.40;99.90
12853;DHT22;6495;51.808;7.478;2023-02-15T09:09:16;4.50;99.90
12853;DHT22;6495;51.808;7.478;2023-02-15T09:11:47;4.70;99.90
12853;DHT22;6495;51.808;7.478;2023-02-15T09:14:26;4.90;99.90
12853;DHT22;6495;51.808;7.478;2023-02-15T09:16:55;5.10;99.90
12853;DHT22;6495;51.808;7.478;2023-02-15T09:19:23;5.20;99.90
12853;DHT22;6495;51.808;7.478;2023-02-15T09:21:52;5.40;99.90
12853;DHT22;6495;51.808;7.478;2023-02-15T09:24:21;5.60;99.90
12853;DHT22;6495;51.808;7.478;2023-02-15T09:26:49;5.70;99.90
12853;DHT22;6495;51.808;7.478;2023-02-15T09:29:18;5.80;99.90
12853;DHT22;6495;51.808;7.478;2023-02-15T09:31:49;6.00;99.90
12853;DHT22;6495;51.808;7.478;2023-02-15T09:34:21;6.10;99.90
12853;DHT22;6495;51.808;7.478;2023-02-15T09:36:50;6.30;99.90
12853;DHT22;6495;51.808;7.478;2023-02-15T09:39:20;6.40;99.90
12853;DHT22;6495;51.808;7.478;2023-02-15T09:42:16;6.50;99.90
12853;DHT22;6495;51.808;7.478;2023-02-15T09:45:26;6.60;99.90
12853;DHT22;6495;51.808;7.478;2023-02-15T09:48:30;6.70;99.90
12853;DHT22;6495;51.808;7.478;2023-02-15T09:54:37;6.80;99.90
12853;DHT22;6495;51.808;7.478;2023-02-15T09:57:23;6.90;99.90
12853;DHT22;6495;51.808;7.478;2023-02-15T10:00:07;7.00;99.90
12853;DHT22;6495;51.808;7.478;2023-02-15T10:03:09;7.10;99.90
12853;DHT22;6495;51.808;7.478;2023-02-15T10:05:54;7.20;99.90
12853;DHT22;6495;51.808;7.478;2023-02-15T10:08:55;7.40;99.90
12853;DHT22;6495;51.808;7.478;2023-02-15T10:11:42;7.50;99.90
12853;DHT22;6495;51.808;7.478;2023-02-15T10:17:37;7.70;99.90
12853;DHT22;6495;51.808;7.478;2023-02-15T10:20:23;7.90;99.90
12853;DHT22;6495;51.808;7.478;2023-02-15T10:23:13;8.00;99.90
12853;DHT22;6495;51.808;7.478;2023-02-15T10:26:04;8.10;99.90
12853;DHT22;6495;51.808;7.478;2023-02-15T10:28:43;8.30;99.90
12853;DHT22;6495;51.808;7.478;2023-02-15T10:31:23;8.40;99.90
12853;DHT22;6495;51.808;7.478;2023-02-15T10:34:08;8.60;99.90
12853;DHT22;6495;51.808;7.478;2023-02-15T10:37:14;8.80;99.90
12853;DHT22;6495;51.808;7.478;2023-02-15T10:40:00;8.90;99.90
12853;DHT22;6495;51.808;7.478;2023-02-15T10:42:43;9.10;99.90
12853;DHT22;6495;51.808;7.478;2023-02-15T10:45:28;9.30;99.90
12853;DHT22;6495;51.808;7.478;2023-02-15T10:48:13;9.40;99.90
12853;DHT22;6495;51.808;7.478;2023-02-15T10:50:52;9.50;99.90
12853;DHT22;6495;51.808;7.478;2023-02-15T10:53:45;9.70;99.90
12853;DHT22;6495;51.808;7.478;2023-02-15T10:56:35;9.80;99.90
12853;DHT22;6495;51.808;7.478;2023-02-15T10:59:30;10.00;99.90
12853;DHT22;6495;51.808;7.478;2023-02-15T11:02:15;10.10;99.90
12853;DHT22;6495;51.808;7.478;2023-02-15T11:04:53;10.20;99.90
12853;DHT22;6495;51.808;7.478;2023-02-15T11:07:32;10.40;99.90
12853;DHT22;6495;51.808;7.478;2023-02-15T11:10:13;10.50;99.90
12853;DHT22;6495;51.808;7.478;2023-02-15T11:12:52;10.70;99.90
12853;DHT22;6495;51.808;7.478;2023-02-15T11:15:29;10.80;99.90
12853;DHT22;6495;51.808;7.478;2023-02-15T11:18:08;10.90;99.90
12853;DHT22;6495;51.808;7.478;2023-02-15T11:20:45;11.00;99.90
12853;DHT22;6495;51.808;7.478;2023-02-15T11:23:20;11.10;99.90
12853;DHT22;6495;51.808;7.478;2023-02-15T11:25:56;11.20;99.90
12853;DHT22;6495;51.808;7.478;2023-02-15T11:28:31;11.30;99.90
12853;DHT22;6495;51.808;7.478;2023-02-15T11:31:13;11.40;99.90
12853;DHT22;6495;51.808;7.478;2023-02-15T11:33:47;11.50;99.90
12853;DHT22;6495;51.808;7.478;2023-02-15T11:36:21;11.50;99.90
12853;DHT22;6495;51.808;7.478;2023-02-15T11:38:58;11.60;99.90
12853;DHT22;6495;51.808;7.478;2023-02-15T11:41:34;11.70;99.90
12853;DHT22;6495;51.808;7.478;2023-02-15T11:44:11;11.80;99.90
12853;DHT22;6495;51.808;7.478;2023-02-15T11:46:44;11.90;99.90
12853;DHT22;6495;51.808;7.478;2023-02-15T11:49:21;12.00;99.90
12853;DHT22;6495;51.808;7.478;2023-02-15T11:51:54;12.00;99.90
12853;DHT22;6495;51.808;7.478;2023-02-15T11:54:27;12.10;99.90
12853;DHT22;6495;51.808;7.478;2023-02-15T11:57:00;12.10;99.90
12853;DHT22;6495;51.808;7.478;2023-02-15T11:59:43;12.20;99.90
12853;DHT22;6495;51.808;7.478;2023-02-15T12:02:17;12.30;99.90
12853;DHT22;6495;51.808;7.478;2023-02-15T12:04:51;12.40;99.90
12853;DHT22;6495;51.808;7.478;2023-02-15T12:07:25;12.40;99.90
12853;DHT22;6495;51.808;7.478;2023-02-15T12:10:03;12.50;99.90
12853;DHT22;6495;51.808;7.478;2023-02-15T12:12:38;12.60;99.90
12853;DHT22;6495;51.808;7.478;2023-02-15T12:15:10;12.70;99.90
12853;DHT22;6495;51.808;7.478;2023-02-15T12:17:41;12.80;99.90
12853;DHT22;6495;51.808;7.478;2023-02-15T12:20:28;12.80;99.90
12853;DHT22;6495;51.808;7.478;2023-02-15T12:23:01;12.90;99.90
12853;DHT22;6495;51.808;7.478;2023-02-15T12:25:36;13.00;99.90
12853;DHT22;6495;51.808;7.478;2023-02-15T12:28:22;13.00;99.90
12853;DHT22;6495;51.808;7.478;2023-02-15T12:30:55;13.10;99.90
12853;DHT22;6495;51.808;7.478;2023-02-15T12:33:28;13.00;99.90
12853;DHT22;6495;51.808;7.478;2023-02-15T12:36:01;13.00;99.90
12853;DHT22;6495;51.808;7.478;2023-02-15T12:38:36;13.00;99.90
12853;DHT22;6495;51.808;7.478;2023-02-15T12:41:21;13.00;99.90
12853;DHT22;6495;51.808;7.478;2023-02-15T12:44:05;13.00;99.90
12853;DHT22;6495;51.808;7.478;2023-02-15T12:46:41;13.00;99.90
12853;DHT22;6495;51.808;7.478;2023-02-15T12:49:17;13.00;99.90
12853;DHT22;6495;51.808;7.478;2023-02-15T12:51:48;13.00;99.90
12853;DHT22;6495;51.808;7.478;2023-02-15T12:54:31;13.00;99.90
12853;DHT22;6495;51.808;7.478;2023-02-15T12:57:22;13.00;99.90
12853;DHT22;6495;51.808;7.478;2023-02-15T12:59:54;13.00;99.90
12853;DHT22;6495;51.808;7.478;2023-02-15T13:02:33;13.00;99.90
12853;DHT22;6495;51.808;7.478;2023-02-15T13:05:18;13.00;99.90
12853;DHT22;6495;51.808;7.478;2023-02-15T13:07:53;13.00;99.90
12853;DHT22;6495;51.808;7.478;2023-02-15T13:10:26;12.90;99.90
12853;DHT22;6495;51.808;7.478;2023-02-15T13:12:57;12.90;99.90
12853;DHT22;6495;51.808;7.478;2023-02-15T13:15:34;12.90;99.90
12853;DHT22;6495;51.808;7.478;2023-02-15T13:18:12;12.90;99.90
12853;DHT22;6495;51.808;7.478;2023-02-15T13:20:44;12.90;99.90
12853;DHT22;6495;51.808;7.478;2023-02-15T13:23:26;12.80;99.90
12853;DHT22;6495;51.808;7.478;2023-02-15T13:25:57;12.80;99.90
12853;DHT22;6495;51.808;7.478;2023-02-15T13:28:40;12.80;99.90
12853;DHT22;6495;51.808;7.478;2023-02-15T13:31:15;12.80;99.90
12853;DHT22;6495;51.808;7.478;2023-02-15T13:33:50;12.80;99.90
12853;DHT22;6495;51.808;7.478;2023-02-15T13:36:25;12.70;99.90
12853;DHT22;6495;51.808;7.478;2023-02-15T13:39:07;12.70;99.90
12853;DHT22;6495;51.808;7.478;2023-02-15T13:41:50;12.70;99.90
12853;DHT22;6495;51.808;7.478;2023-02-15T13:44:37;12.60;99.90
12853;DHT22;6495;51.808;7.478;2023-02-15T13:47:23;12.60;99.90
12853;DHT22;6495;51.808;7.478;2023-02-15T13:50:14;12.60;99.90
12853;DHT22;6495;51.808;7.478;2023-02-15T13:52:56;12.60;99.90
12853;DHT22;6495;51.808;7.478;2023-02-15T13:55:41;12.60;99.90
12853;DHT22;6495;51.808;7.478;2023-02-15T13:58:34;12.70;99.90
12853;DHT22;6495;51.808;7.478;2023-02-15T14:01:20;12.70;99.90
12853;DHT22;6495;51.808;7.478;2023-02-15T14:04:13;12.70;99.90
12853;DHT22;6495;51.808;7.478;2023-02-15T14:07:24;12.70;99.90
12853;DHT22;6495;51.808;7.478;2023-02-15T14:10:19;12.70;99.90
12853;DHT22;6495;51.808;7.478;2023-02-15T14:13:12;12.70;99.90
12853;DHT22;6495;51.808;7.478;2023-02-15T14:16:02;12.70;99.90
12853;DHT22;6495;51.808;7.478;2023-02-15T14:18:38;12.70;99.90
12853;DHT22;6495;51.808;7.478;2023-02-15T14:21:14;12.70;99.90
12853;DHT22;6495;51.808;7.478;2023-02-15T14:23:57;12.70;99.90
12853;DHT22;6495;51.808;7.478;2023-02-15T14:26:42;12.80;99.90
12853;DHT22;6495;51.808;7.478;2023-02-15T14:29:27;12.80;99.90
12853;DHT22;6495;51.808;7.478;2023-02-15T14:32:10;12.80;99.90
12853;DHT22;6495;51.808;7.478;2023-02-15T14:34:46;12.80;99.90
12853;DHT22;6495;51.808;7.478;2023-02-15T14:37:24;12.80;99.90
12853;DHT22;6495;51.808;7.478;2023-02-15T14:40:05;12.80;99.90
12853;DHT22;6495;51.808;7.478;2023-02-15T14:43:01;12.80;99.90
12853;DHT22;6495;51.808;7.478;2023-02-15T14:45:39;12.70;99.90
12853;DHT22;6495;51.808;7.478;2023-02-15T14:48:18;12.70;99.90
12853;DHT22;6495;51.808;7.478;2023-02-15T14:50:50;12.70;99.90
12853;DHT22;6495;51.808;7.478;2023-02-15T14:53:34;12.70;99.90
12853;DHT22;6495;51.808;7.478;2023-02-15T14:56:17;12.70;99.90
12853;DHT22;6495;51.808;7.478;2023-02-15T15:01:55;12.70;99.90
12853;DHT22;6495;51.808;7.478;2023-02-15T15:04:29;12.70;99.90
12853;DHT22;6495;51.808;7.478;2023-02-15T15:07:04;12.70;99.90
12853;DHT22;6495;51.808;7.478;2023-02-15T15:09:43;12.70;99.90
12853;DHT22;6495;51.808;7.478;2023-02-15T15:12:39;12.80;99.90
12853;DHT22;6495;51.808;7.478;2023-02-15T15:15:12;12.70;99.90
12853;DHT22;6495;51.808;7.478;2023-02-15T15:17:58;12.70;99.90
12853;DHT22;6495;51.808;7.478;2023-02-15T15:20:47;12.70;99.90
12853;DHT22;6495;51.808;7.478;2023-02-15T15:23:40;12.70;99.90
12853;DHT22;6495;51.808;7.478;2023-02-15T15:26:24;12.70;99.90
12853;DHT22;6495;51.808;7.478;2023-02-15T15:29:00;12.60;99.90
12853;DHT22;6495;51.808;7.478;2023-02-15T15:31:40;12.70;99.90
12853;DHT22;6495;51.808;7.478;2023-02-15T15:37:53;12.60;99.90
12853;DHT22;6495;51.808;7.478;2023-02-15T15:41:03;12.60;99.90
12853;DHT22;6495;51.808;7.478;2023-02-15T15:47:26;12.50;99.90
12853;DHT22;6495;51.808;7.478;2023-02-15T15:50:10;12.60;99.90
12853;DHT22;6495;51.808;7.478;2023-02-15T15:52:47;12.50;99.90
12853;DHT22;6495;51.808;7.478;2023-02-15T15:55:18;12.50;99.90
12853;DHT22;6495;51.808;7.478;2023-02-15T15:57:51;12.50;99.90
12853;DHT22;6495;51.808;7.478;2023-02-15T16:00:34;12.50;99.90
12853;DHT22;6495;51.808;7.478;2023-02-15T16:03:12;12.50;99.90
12853;DHT22;6495;51.808;7.478;2023-02-15T16:05:42;12.40;99.90
12853;DHT22;6495;51.808;7.478;2023-02-15T16:08:11;12.40;99.90
12853;DHT22;6495;51.808;7.478;2023-02-15T16:10:40;12.40;99.90
12853;DHT22;6495;51.808;7.478;2023-02-15T16:13:12;12.40;99.90
12853;DHT22;6495;51.808;7.478;2023-02-15T16:15:45;12.30;99.90
12853;DHT22;6495;51.808;7.478;2023-02-15T16:18:17;12.30;99.90
12853;DHT22;6495;51.808;7.478;2023-02-15T16:20:53;12.30;99.90
12853;DHT22;6495;51.808;7.478;2023-02-15T16:23:48;12.30;99.90
12853;DHT22;6495;51.808;7.478;2023-02-15T16:26:52;12.30;99.90
12853;DHT22;6495;51.808;7.478;2023-02-15T16:29:33;12.30;99.90
12853;DHT22;6495;51.808;7.478;2023-02-15T16:32:06;12.30;99.90
12853;DHT22;6495;51.808;7.478;2023-02-15T16:34:51;12.30;99.90
12853;DHT22;6495;51.808;7.478;2023-02-15T16:37:22;12.20;99.90
12853;DHT22;6495;51.808;7.478;2023-02-15T16:39:54;12.20;99.90
12853;DHT22;6495;51.808;7.478;2023-02-15T16:42:24;12.20;99.90
12853;DHT22;6495;51.808;7.478;2023-02-15T16:44:57;12.20;99.90
12853;DHT22;6495;51.808;7.478;2023-02-15T16:47:35;12.20;99.90
12853;DHT22;6495;51.808;7.478;2023-02-15T16:50:17;12.10;99.90
12853;DHT22;6495;51.808;7.478;2023-02-15T16:52:48;12.10;99.90
12853;DHT22;6495;51.808;7.478;2023-02-15T16:55:21;12.00;99.90
12853;DHT22;6495;51.808;7.478;2023-02-15T16:57:53;12.00;99.90
12853;DHT22;6495;51.808;7.478;2023-02-15T17:00:30;11.90;99.90
12853;DHT22;6495;51.808;7.478;2023-02-15T17:03:03;11.80;99.90
12853;DHT22;6495;51.808;7.478;2023-02-15T17:05:40;11.70;99.90
12853;DHT22;6495;51.808;7.478;2023-02-15T17:08:15;11.70;99.90